Terminal Aerodrome Forecast
Issued by NWS

Home | Current Version | Previous Version | Text Only | Print | Product List | Glossary Off
Versions: 1 2 3 4 5 6 7 8 9 10 11 12 13 14 15 16 17 18 19

893
FTUS43 KBIS 111124
TAFMOT
TAF
KMOT 111124Z 1112/1212 05005KT P6SM OVC018
     FM111600 07004KT 3SM -SN BR OVC015
     FM112100 35007KT P6SM -SN OVC015
     FM120000 35007KT P6SM OVC015
     FM120100 35007KT P6SM OVC025
     FM120200 34007KT P6SM OVC040=

USA.gov is the U.S. government's official web portal to all federal, state and local government web resources and services.